Time;durP1;ratioP1;P1;durP2;ratioP2;P2;SDS_P1;SDS_P2;PMS_P1;PMS_P2;Temp;Humidity;BMP_temperature;BMP_pressure;BME280_temperature;BME280_humidity;BME280_pressure;Samples;Min_cycle;Max_cycle;Signal;HPM_P1;HPM_P2
2022/10/18 00:00:25;;;;;;;;;;;14.00;99.90;;;;;;5089672;28;19908;-78
2022/10/18 00:02:50;;;;;;;;;;;13.90;99.90;;;;;;5069824;28;19908;-78
2022/10/18 00:05:15;;;;;;;;;;;13.80;99.90;;;;;;5071323;28;19991;-78
2022/10/18 00:07:41;;;;;;;;;;;13.80;99.90;;;;;;5074594;28;20213;-78
2022/10/18 00:10:07;;;;;;;;;;;13.80;99.90;;;;;;5063144;28;20273;-78
2022/10/18 00:12:33;;;;;;;;;;;13.80;99.90;;;;;;5057952;28;20324;-78
2022/10/18 00:14:59;;;;;;;;;;;13.70;99.90;;;;;;5070640;28;19946;-78
2022/10/18 00:17:24;;;;;;;;;;;13.60;99.90;;;;;;5072808;28;20351;-78
2022/10/18 00:19:50;;;;;;;;;;;13.60;99.90;;;;;;5068545;28;19904;-78
2022/10/18 00:22:15;;;;;;;;;;;13.60;99.90;;;;;;5067795;28;19932;-78
2022/10/18 00:24:41;;;;;;;;;;;13.60;99.90;;;;;;5072661;28;19912;-78
2022/10/18 00:27:06;;;;;;;;;;;13.60;99.90;;;;;;5070916;28;20015;-78
2022/10/18 00:29:31;;;;;;;;;;;13.60;99.90;;;;;;5074802;28;20383;-79
2022/10/18 00:31:57;;;;;;;;;;;13.60;99.90;;;;;;5074451;28;19903;-78
2022/10/18 00:34:22;;;;;;;;;;;13.60;99.90;;;;;;5065325;28;19904;-78
2022/10/18 00:36:48;;;;;;;;;;;13.70;99.90;;;;;;5070474;28;19991;-78
2022/10/18 00:39:15;;;;;;;;;;;13.60;99.90;;;;;;5075838;28;19954;-79
2022/10/18 00:41:41;;;;;;;;;;;13.60;99.90;;;;;;5074715;28;19927;-78
2022/10/18 00:44:12;;;;;;;;;;;13.60;99.90;;;;;;5064510;28;19924;-78
2022/10/18 00:46:38;;;;;;;;;;;13.60;99.90;;;;;;5071698;28;20335;-78
2022/10/18 00:49:05;;;;;;;;;;;13.60;99.90;;;;;;5072099;28;20000;-78
2022/10/18 00:51:40;;;;;;;;;;;13.60;99.90;;;;;;5077974;28;19904;-78
2022/10/18 00:54:06;;;;;;;;;;;13.60;99.90;;;;;;5073518;28;19900;-78
2022/10/18 00:56:32;;;;;;;;;;;13.60;99.90;;;;;;5068721;28;19915;-78
2022/10/18 00:58:58;;;;;;;;;;;13.60;99.90;;;;;;5080054;28;19973;-78
2022/10/18 01:01:23;;;;;;;;;;;13.50;99.90;;;;;;5074539;28;19916;-78
2022/10/18 01:03:49;;;;;;;;;;;13.50;99.90;;;;;;5063772;28;19979;-78
2022/10/18 01:06:15;;;;;;;;;;;13.50;99.90;;;;;;5076355;28;19923;-78
2022/10/18 01:08:43;;;;;;;;;;;13.40;99.90;;;;;;5068057;28;19998;-78
2022/10/18 01:11:22;;;;;;;;;;;13.50;99.90;;;;;;5078538;28;20008;-78
2022/10/18 01:14:06;;;;;;;;;;;13.40;99.90;;;;;;5069009;28;19981;-78
2022/10/18 01:16:36;;;;;;;;;;;13.40;99.90;;;;;;5076438;28;19992;-78
2022/10/18 01:19:19;;;;;;;;;;;13.40;99.90;;;;;;5072297;28;20216;-79
2022/10/18 01:21:52;;;;;;;;;;;13.50;99.90;;;;;;5072323;28;19950;-78
2022/10/18 01:24:35;;;;;;;;;;;13.40;99.90;;;;;;5068407;28;19912;-78
2022/10/18 01:27:19;;;;;;;;;;;13.40;99.90;;;;;;5070173;28;20343;-78
2022/10/18 01:29:54;;;;;;;;;;;13.40;99.90;;;;;;5066726;28;19910;-78
2022/10/18 01:32:27;;;;;;;;;;;13.30;99.90;;;;;;5073952;28;20197;-78
2022/10/18 01:34:57;;;;;;;;;;;13.30;99.90;;;;;;5071785;28;19923;-79
2022/10/18 01:37:23;;;;;;;;;;;13.30;99.90;;;;;;5074286;28;19922;-78
2022/10/18 01:39:52;;;;;;;;;;;13.20;99.90;;;;;;5077411;28;19961;-78
2022/10/18 01:42:18;;;;;;;;;;;13.20;99.90;;;;;;5075537;28;20370;-78
2022/10/18 01:44:45;;;;;;;;;;;13.20;99.90;;;;;;5074470;28;19904;-78
2022/10/18 01:47:12;;;;;;;;;;;13.20;99.90;;;;;;5061755;28;19992;-78
2022/10/18 01:49:38;;;;;;;;;;;13.10;99.90;;;;;;5063207;28;20225;-78
2022/10/18 01:52:03;;;;;;;;;;;13.20;99.90;;;;;;5070049;28;19946;-78
2022/10/18 01:54:32;;;;;;;;;;;13.20;99.90;;;;;;5059200;28;20023;-79
2022/10/18 01:57:00;;;;;;;;;;;13.30;99.90;;;;;;5067412;28;19923;-78
2022/10/18 01:59:29;;;;;;;;;;;13.30;99.90;;;;;;5071823;28;19957;-78
2022/10/18 02:02:01;;;;;;;;;;;13.30;99.90;;;;;;5082340;28;20308;-78
2022/10/18 02:04:30;;;;;;;;;;;13.40;99.90;;;;;;5071147;28;20343;-78
2022/10/18 02:07:00;;;;;;;;;;;13.40;99.90;;;;;;5067608;28;19904;-78
2022/10/18 02:09:32;;;;;;;;;;;13.30;99.90;;;;;;5069190;28;20616;-78
2022/10/18 02:11:58;;;;;;;;;;;13.40;99.90;;;;;;5063684;28;19916;-78
2022/10/18 02:14:24;;;;;;;;;;;13.40;99.90;;;;;;5069490;28;20255;-79
2022/10/18 02:16:51;;;;;;;;;;;13.40;99.90;;;;;;5076134;28;19941;-78
2022/10/18 02:19:31;;;;;;;;;;;13.40;99.90;;;;;;5072635;28;19910;-78
2022/10/18 02:21:57;;;;;;;;;;;13.50;99.90;;;;;;5080836;28;19908;-78
2022/10/18 02:24:26;;;;;;;;;;;13.40;99.90;;;;;;5082916;28;20303;-78
2022/10/18 02:26:51;;;;;;;;;;;13.50;99.90;;;;;;5067270;28;19950;-78
2022/10/18 02:29:16;;;;;;;;;;;13.50;99.90;;;;;;5069321;28;20379;-78
2022/10/18 02:31:47;;;;;;;;;;;13.50;99.90;;;;;;5066554;28;19911;-78
2022/10/18 02:34:15;;;;;;;;;;;13.50;99.90;;;;;;5056930;28;19999;-78
2022/10/18 02:36:49;;;;;;;;;;;13.40;99.90;;;;;;5066056;28;19987;-78
2022/10/18 02:39:21;;;;;;;;;;;13.50;99.90;;;;;;5073382;28;19908;-78
2022/10/18 02:41:47;;;;;;;;;;;13.50;99.90;;;;;;5079800;28;20015;-79
2022/10/18 02:44:12;;;;;;;;;;;13.40;99.90;;;;;;5071270;28;20018;-78
2022/10/18 02:46:38;;;;;;;;;;;13.50;99.90;;;;;;5058264;28;19926;-78
2022/10/18 02:49:04;;;;;;;;;;;13.50;99.90;;;;;;5066856;28;19912;-78
2022/10/18 02:51:29;;;;;;;;;;;13.50;99.90;;;;;;5067107;28;19988;-79
2022/10/18 02:53:55;;;;;;;;;;;13.50;99.90;;;;;;5066848;28;19934;-78
2022/10/18 02:56:20;;;;;;;;;;;13.50;99.90;;;;;;5069035;28;20243;-78
2022/10/18 02:58:45;;;;;;;;;;;13.50;99.90;;;;;;5083063;28;19922;-79
2022/10/18 03:01:11;;;;;;;;;;;13.50;99.90;;;;;;5058657;28;19912;-79
2022/10/18 03:03:37;;;;;;;;;;;13.50;99.90;;;;;;5071820;28;19916;-78
2022/10/18 03:06:02;;;;;;;;;;;13.50;99.90;;;;;;5072723;28;19924;-78
2022/10/18 03:08:27;;;;;;;;;;;13.60;99.90;;;;;;5070727;28;19913;-78
2022/10/18 03:10:53;;;;;;;;;;;13.60;99.90;;;;;;5061210;28;19955;-78
2022/10/18 03:13:19;;;;;;;;;;;13.60;99.90;;;;;;5078760;28;19988;-78
2022/10/18 03:15:45;;;;;;;;;;;13.50;99.90;;;;;;5075637;28;19904;-78
2022/10/18 03:18:10;;;;;;;;;;;13.50;99.90;;;;;;5067373;28;20316;-78
2022/10/18 03:20:35;;;;;;;;;;;13.50;99.90;;;;;;5069770;28;19904;-78
2022/10/18 03:23:02;;;;;;;;;;;13.50;99.90;;;;;;5055125;28;19938;-78
2022/10/18 03:25:27;;;;;;;;;;;13.50;99.90;;;;;;5075527;28;19908;-78
2022/10/18 03:27:52;;;;;;;;;;;13.50;99.90;;;;;;5070689;28;19969;-78
2022/10/18 03:30:18;;;;;;;;;;;13.40;99.90;;;;;;5075157;28;19908;-78
2022/10/18 03:32:43;;;;;;;;;;;13.40;99.90;;;;;;5070290;28;19909;-78
2022/10/18 03:35:09;;;;;;;;;;;13.40;99.90;;;;;;5072516;28;19947;-78
2022/10/18 03:37:35;;;;;;;;;;;13.40;99.90;;;;;;5070147;28;19911;-78
2022/10/18 03:40:00;;;;;;;;;;;13.40;99.90;;;;;;5073601;28;19912;-78
2022/10/18 03:42:26;;;;;;;;;;;13.40;99.90;;;;;;5072642;28;20296;-78
2022/10/18 03:44:51;;;;;;;;;;;13.30;99.90;;;;;;5086089;28;19951;-78
2022/10/18 03:47:17;;;;;;;;;;;13.30;99.90;;;;;;5067198;28;19972;-78
2022/10/18 03:49:42;;;;;;;;;;;13.40;99.90;;;;;;5073107;28;20385;-78
2022/10/18 03:52:07;;;;;;;;;;;13.40;99.90;;;;;;5066401;28;19923;-78
2022/10/18 03:54:33;;;;;;;;;;;13.40;99.90;;;;;;5084132;28;19948;-78
2022/10/18 03:56:58;;;;;;;;;;;13.30;99.90;;;;;;5072525;28;19912;-78
2022/10/18 03:59:23;;;;;;;;;;;13.40;99.90;;;;;;5071583;28;19920;-78
2022/10/18 04:01:49;;;;;;;;;;;13.40;99.90;;;;;;5083901;28;19904;-78
2022/10/18 04:04:14;;;;;;;;;;;13.40;99.90;;;;;;5067750;28;20295;-78
2022/10/18 04:06:40;;;;;;;;;;;13.30;99.90;;;;;;5084070;28;20324;-78
2022/10/18 04:09:05;;;;;;;;;;;13.30;99.90;;;;;;5068619;28;19909;-79
2022/10/18 04:11:31;;;;;;;;;;;13.30;99.90;;;;;;5065459;28;19926;-79
2022/10/18 04:13:56;;;;;;;;;;;13.30;99.90;;;;;;5073705;28;19931;-79
2022/10/18 04:16:21;;;;;;;;;;;13.30;99.90;;;;;;5072881;28;19930;-79
2022/10/18 04:18:47;;;;;;;;;;;13.30;99.90;;;;;;5061983;28;20268;-79
2022/10/18 04:21:13;;;;;;;;;;;13.30;99.90;;;;;;5071700;28;19909;-79
2022/10/18 04:23:38;;;;;;;;;;;13.30;99.90;;;;;;5062789;28;20041;-79
2022/10/18 04:26:03;;;;;;;;;;;13.30;99.90;;;;;;5064980;28;19923;-79
2022/10/18 04:28:29;;;;;;;;;;;13.30;99.90;;;;;;5071520;28;19904;-69
2022/10/18 04:30:54;;;;;;;;;;;13.30;99.90;;;;;;5068093;28;19916;-68
2022/10/18 04:33:20;;;;;;;;;;;13.30;99.90;;;;;;5069402;28;19905;-67
2022/10/18 04:35:45;;;;;;;;;;;13.30;99.90;;;;;;5076824;28;19930;-67
2022/10/18 04:38:13;;;;;;;;;;;13.20;99.90;;;;;;5079014;28;20316;-67
2022/10/18 04:40:38;;;;;;;;;;;13.20;99.90;;;;;;5077577;28;20000;-67
2022/10/18 04:43:04;;;;;;;;;;;13.20;99.90;;;;;;5069556;28;20002;-67
2022/10/18 04:45:29;;;;;;;;;;;13.20;99.90;;;;;;5064672;28;19912;-67
2022/10/18 04:47:54;;;;;;;;;;;13.10;99.90;;;;;;5087558;28;19933;-68
2022/10/18 04:50:20;;;;;;;;;;;13.10;99.90;;;;;;5073220;28;20213;-67
2022/10/18 04:52:45;;;;;;;;;;;13.10;99.90;;;;;;5078541;28;20352;-67
2022/10/18 04:55:11;;;;;;;;;;;13.10;99.90;;;;;;5081243;28;20047;-67
2022/10/18 04:57:36;;;;;;;;;;;13.10;99.90;;;;;;5075876;28;19923;-67
2022/10/18 05:00:02;;;;;;;;;;;13.10;99.90;;;;;;5067799;28;19931;-70
2022/10/18 05:02:27;;;;;;;;;;;13.20;99.90;;;;;;5078649;28;19919;-67
2022/10/18 05:04:53;;;;;;;;;;;13.10;99.90;;;;;;5073197;28;19903;-68
2022/10/18 05:07:18;;;;;;;;;;;13.10;99.90;;;;;;5080968;28;20281;-67
2022/10/18 05:09:44;;;;;;;;;;;13.10;99.90;;;;;;5077478;28;20203;-68
2022/10/18 05:12:09;;;;;;;;;;;13.20;99.90;;;;;;5075654;28;19994;-67
2022/10/18 05:14:35;;;;;;;;;;;13.20;99.90;;;;;;5073790;28;19904;-68
2022/10/18 05:17:00;;;;;;;;;;;13.20;99.90;;;;;;5066768;28;19908;-67
2022/10/18 05:19:25;;;;;;;;;;;13.10;99.90;;;;;;5074383;28;20372;-67
2022/10/18 05:21:51;;;;;;;;;;;13.10;99.90;;;;;;5075635;28;19911;-67
2022/10/18 05:24:16;;;;;;;;;;;13.10;99.90;;;;;;5068386;28;19920;-67
2022/10/18 05:26:42;;;;;;;;;;;13.10;99.90;;;;;;5077864;28;19947;-68
2022/10/18 05:29:07;;;;;;;;;;;13.10;99.90;;;;;;5068114;28;19924;-67
2022/10/18 05:31:32;;;;;;;;;;;13.10;99.90;;;;;;5063974;28;19945;-67
2022/10/18 05:33:58;;;;;;;;;;;13.10;99.90;;;;;;5068719;28;19900;-67
2022/10/18 05:36:25;;;;;;;;;;;13.20;99.90;;;;;;5062741;28;20325;-68
2022/10/18 05:38:51;;;;;;;;;;;13.10;99.90;;;;;;5070068;28;20256;-68
2022/10/18 05:41:17;;;;;;;;;;;13.10;99.90;;;;;;5068899;28;19947;-68
2022/10/18 05:43:42;;;;;;;;;;;13.20;99.90;;;;;;5069045;28;19962;-67
2022/10/18 05:46:07;;;;;;;;;;;13.10;99.90;;;;;;5076386;28;19916;-68
2022/10/18 05:48:33;;;;;;;;;;;13.10;99.90;;;;;;5070135;28;19900;-67
2022/10/18 05:50:59;;;;;;;;;;;13.10;99.90;;;;;;5064523;28;19901;-68
2022/10/18 05:53:25;;;;;;;;;;;13.10;99.90;;;;;;5068464;28;20268;-67
2022/10/18 05:55:50;;;;;;;;;;;13.10;99.90;;;;;;5059280;28;19905;-67
2022/10/18 05:58:15;;;;;;;;;;;13.20;99.90;;;;;;5062614;28;19995;-68
2022/10/18 06:00:41;;;;;;;;;;;13.10;99.90;;;;;;5070136;28;20214;-67
2022/10/18 06:03:06;;;;;;;;;;;13.10;99.90;;;;;;5068011;28;19909;-66
2022/10/18 06:05:31;;;;;;;;;;;13.10;99.90;;;;;;5069878;28;19923;-68
2022/10/18 06:07:57;;;;;;;;;;;13.10;99.90;;;;;;5068549;28;19914;-67
2022/10/18 06:10:22;;;;;;;;;;;13.10;99.90;;;;;;5068776;28;19901;-67
2022/10/18 06:12:48;;;;;;;;;;;13.10;99.90;;;;;;5067225;28;20182;-67
2022/10/18 06:15:13;;;;;;;;;;;13.10;99.90;;;;;;5069709;28;19954;-67
2022/10/18 06:17:39;;;;;;;;;;;13.00;99.90;;;;;;5068166;28;19907;-67
2022/10/18 06:20:04;;;;;;;;;;;13.00;99.90;;;;;;5069515;28;20404;-67
2022/10/18 06:22:30;;;;;;;;;;;13.10;99.90;;;;;;5069563;28;19923;-67
2022/10/18 06:24:55;;;;;;;;;;;13.10;99.90;;;;;;5065391;28;20087;-67
2022/10/18 06:27:21;;;;;;;;;;;13.10;99.90;;;;;;5065873;28;19908;-67
2022/10/18 06:29:46;;;;;;;;;;;13.10;99.90;;;;;;5069699;28;19980;-67
2022/10/18 06:32:11;;;;;;;;;;;13.10;99.90;;;;;;5075361;28;19979;-68
2022/10/18 06:34:37;;;;;;;;;;;13.10;99.90;;;;;;5069104;28;19911;-67
2022/10/18 06:37:02;;;;;;;;;;;13.10;99.90;;;;;;5071350;28;19910;-67
2022/10/18 06:39:28;;;;;;;;;;;13.10;99.90;;;;;;5068143;28;19909;-67
2022/10/18 06:41:53;;;;;;;;;;;13.10;99.90;;;;;;5067865;28;20363;-68
2022/10/18 06:44:19;;;;;;;;;;;13.10;99.90;;;;;;5053827;28;19913;-67
2022/10/18 06:46:45;;;;;;;;;;;13.10;99.90;;;;;;5057670;28;20025;-67
2022/10/18 06:49:11;;;;;;;;;;;13.10;99.90;;;;;;5069060;28;20248;-68
2022/10/18 06:51:36;;;;;;;;;;;13.10;99.90;;;;;;5078694;28;19904;-67
2022/10/18 06:54:02;;;;;;;;;;;13.20;99.90;;;;;;5075008;28;19943;-68
2022/10/18 06:56:28;;;;;;;;;;;13.20;99.90;;;;;;5068718;28;20352;-67
2022/10/18 06:58:53;;;;;;;;;;;13.30;99.90;;;;;;5071385;28;19972;-68
2022/10/18 07:01:19;;;;;;;;;;;13.20;99.90;;;;;;5088154;28;20541;-68
2022/10/18 07:03:45;;;;;;;;;;;13.30;99.90;;;;;;5081204;28;19912;-67
2022/10/18 07:06:11;;;;;;;;;;;13.30;99.90;;;;;;5075395;28;19923;-67
2022/10/18 07:08:37;;;;;;;;;;;13.30;99.90;;;;;;5069287;28;19957;-68
2022/10/18 07:11:03;;;;;;;;;;;13.30;99.90;;;;;;5066144;28;19921;-67
2022/10/18 07:13:29;;;;;;;;;;;13.30;99.90;;;;;;5072941;28;19907;-67
2022/10/18 07:16:21;;;;;;;;;;;13.30;99.90;;;;;;5075768;28;19989;-68
2022/10/18 07:18:50;;;;;;;;;;;13.30;99.90;;;;;;5076557;28;19954;-69
2022/10/18 07:21:20;;;;;;;;;;;13.30;99.90;;;;;;5080271;28;19904;-67
2022/10/18 07:23:45;;;;;;;;;;;13.30;99.90;;;;;;5068980;28;20015;-67
2022/10/18 07:26:18;;;;;;;;;;;13.30;99.90;;;;;;5065127;28;20035;-67
2022/10/18 07:28:45;;;;;;;;;;;13.20;99.90;;;;;;5070190;28;20233;-68
2022/10/18 07:31:11;;;;;;;;;;;13.20;99.90;;;;;;5082675;28;19916;-67
2022/10/18 07:33:37;;;;;;;;;;;13.10;99.90;;;;;;5052704;28;19908;-67
2022/10/18 07:36:03;;;;;;;;;;;13.20;99.90;;;;;;5065693;28;19942;-67
2022/10/18 07:38:28;;;;;;;;;;;13.20;99.90;;;;;;5065079;28;19905;-67
2022/10/18 07:40:57;;;;;;;;;;;13.20;99.90;;;;;;5079206;28;20003;-67
2022/10/18 07:43:23;;;;;;;;;;;13.10;99.90;;;;;;5074243;28;19962;-67
2022/10/18 07:45:52;;;;;;;;;;;13.20;99.90;;;;;;5068559;28;19939;-67
2022/10/18 07:48:18;;;;;;;;;;;13.30;99.90;;;;;;5060878;28;20056;-67
2022/10/18 07:50:43;;;;;;;;;;;13.30;99.90;;;;;;5060339;28;20079;-68
2022/10/18 07:53:08;;;;;;;;;;;13.30;99.90;;;;;;5065486;28;20257;-67
2022/10/18 07:55:34;;;;;;;;;;;13.30;99.90;;;;;;5083328;28;20371;-67
2022/10/18 07:58:00;;;;;;;;;;;13.30;99.90;;;;;;5073395;28;19919;-67
2022/10/18 08:00:25;;;;;;;;;;;13.40;99.70;;;;;;5086693;28;19903;-68
2022/10/18 08:02:55;;;;;;;;;;;13.30;99.60;;;;;;5066626;28;19927;-67
2022/10/18 08:05:20;;;;;;;;;;;13.40;99.50;;;;;;5049833;28;19923;-67
2022/10/18 08:07:46;;;;;;;;;;;13.40;99.50;;;;;;5070413;28;19946;-67
2022/10/18 08:10:11;;;;;;;;;;;13.40;99.40;;;;;;5066827;28;20010;-67
2022/10/18 08:12:36;;;;;;;;;;;13.40;99.20;;;;;;5070827;28;19919;-67
2022/10/18 08:15:02;;;;;;;;;;;13.50;99.30;;;;;;5071270;28;20213;-68
2022/10/18 08:17:27;;;;;;;;;;;13.40;99.00;;;;;;5065245;28;19920;-68
2022/10/18 08:19:53;;;;;;;;;;;13.40;98.90;;;;;;5069565;28;19948;-67
2022/10/18 08:22:18;;;;;;;;;;;13.50;99.00;;;;;;5071481;28;19916;-68
2022/10/18 08:24:43;;;;;;;;;;;13.40;98.70;;;;;;5064570;28;19921;-67
2022/10/18 08:27:09;;;;;;;;;;;13.40;98.70;;;;;;5051176;28;20256;-67
2022/10/18 08:29:34;;;;;;;;;;;13.40;98.40;;;;;;5071984;28;19981;-67
2022/10/18 08:32:00;;;;;;;;;;;13.30;98.30;;;;;;5072143;28;20248;-67
2022/10/18 08:34:25;;;;;;;;;;;13.40;98.30;;;;;;5077171;28;19915;-68
2022/10/18 08:36:50;;;;;;;;;;;13.30;98.30;;;;;;5078219;28;19978;-68
2022/10/18 08:39:16;;;;;;;;;;;13.40;98.30;;;;;;5064289;28;20370;-68
2022/10/18 08:41:53;;;;;;;;;;;13.20;98.10;;;;;;5065023;28;19912;-68
2022/10/18 08:44:21;;;;;;;;;;;13.20;98.10;;;;;;5062217;28;19919;-67
2022/10/18 08:46:48;;;;;;;;;;;13.10;98.00;;;;;;5073402;28;20324;-68
2022/10/18 08:49:25;;;;;;;;;;;13.00;98.10;;;;;;5062383;28;19924;-69
2022/10/18 08:51:51;;;;;;;;;;;13.00;98.20;;;;;;5071836;28;19904;-68
2022/10/18 08:54:33;;;;;;;;;;;12.90;98.20;;;;;;5061795;28;19966;-68
2022/10/18 08:57:00;;;;;;;;;;;12.80;98.20;;;;;;5068713;28;19911;-68
2022/10/18 08:59:28;;;;;;;;;;;12.70;98.20;;;;;;5050660;28;19927;-67
2022/10/18 09:02:12;;;;;;;;;;;12.60;98.30;;;;;;5066541;28;19908;-69
2022/10/18 09:04:45;;;;;;;;;;;12.60;98.40;;;;;;5067454;28;19962;-68
2022/10/18 09:07:25;;;;;;;;;;;12.60;98.50;;;;;;5068948;28;19912;-67
2022/10/18 09:10:01;;;;;;;;;;;12.70;98.70;;;;;;5066615;28;19904;-67
2022/10/18 09:12:46;;;;;;;;;;;12.90;98.90;;;;;;5064981;28;19928;-67
2022/10/18 09:15:23;;;;;;;;;;;12.90;98.80;;;;;;5064521;28;19909;-67
2022/10/18 09:17:56;;;;;;;;;;;13.10;98.90;;;;;;5061539;28;19904;-67
2022/10/18 09:20:23;;;;;;;;;;;13.30;98.80;;;;;;5069693;28;19908;-67
2022/10/18 09:22:48;;;;;;;;;;;13.30;98.30;;;;;;5067938;28;19987;-67
2022/10/18 09:25:34;;;;;;;;;;;13.50;98.30;;;;;;5067820;28;20301;-67
2022/10/18 09:28:02;;;;;;;;;;;13.60;98.20;;;;;;5064358;28;19927;-68
2022/10/18 09:30:27;;;;;;;;;;;13.90;97.60;;;;;;5067750;28;20391;-67
2022/10/18 09:32:56;;;;;;;;;;;14.20;96.60;;;;;;5066398;28;19951;-68
2022/10/18 09:35:27;;;;;;;;;;;13.90;95.50;;;;;;5068323;28;20331;-68
2022/10/18 09:37:58;;;;;;;;;;;13.80;95.70;;;;;;5066269;28;20344;-69
2022/10/18 09:40:26;;;;;;;;;;;13.80;95.90;;;;;;5067065;28;19904;-69
2022/10/18 09:42:58;;;;;;;;;;;14.20;95.50;;;;;;5066987;28;20301;-68
2022/10/18 09:45:23;;;;;;;;;;;14.70;95.50;;;;;;5067615;28;19911;-69
2022/10/18 09:48:09;;;;;;;;;;;15.00;94.50;;;;;;5064137;28;19904;-68
2022/10/18 09:50:37;;;;;;;;;;;15.00;92.90;;;;;;5066918;28;20228;-66
2022/10/18 09:53:05;;;;;;;;;;;14.90;93.80;;;;;;5066109;28;19904;-68
2022/10/18 09:55:34;;;;;;;;;;;14.90;94.00;;;;;;5066761;28;19904;-68
2022/10/18 09:58:01;;;;;;;;;;;15.00;93.40;;;;;;5063052;28;19905;-67
2022/10/18 10:00:30;;;;;;;;;;;15.00;93.40;;;;;;5060743;28;19992;-67
2022/10/18 10:02:56;;;;;;;;;;;15.20;92.40;;;;;;5054110;28;19931;-67
2022/10/18 10:05:21;;;;;;;;;;;15.20;92.20;;;;;;5056431;28;19926;-68
2022/10/18 10:07:47;;;;;;;;;;;15.40;92.00;;;;;;5062264;28;19908;-67
2022/10/18 10:10:16;;;;;;;;;;;15.70;92.50;;;;;;5065813;28;20174;-70
2022/10/18 10:12:42;;;;;;;;;;;15.60;90.90;;;;;;5064643;28;19999;-68
2022/10/18 10:15:17;;;;;;;;;;;15.80;90.70;;;;;;5061162;28;19908;-67
2022/10/18 10:17:42;;;;;;;;;;;15.90;90.20;;;;;;5066919;28;19938;-68
2022/10/18 10:20:16;;;;;;;;;;;15.80;89.40;;;;;;5069557;28;20318;-68
2022/10/18 10:22:43;;;;;;;;;;;15.90;90.60;;;;;;5065384;28;19908;-68
2022/10/18 10:25:19;;;;;;;;;;;16.00;90.50;;;;;;5064435;28;20294;-68
2022/10/18 10:27:44;;;;;;;;;;;16.00;89.80;;;;;;5060365;28;19945;-68
2022/10/18 10:30:24;;;;;;;;;;;16.20;90.30;;;;;;5070301;28;20278;-67
2022/10/18 10:32:50;;;;;;;;;;;16.30;88.90;;;;;;5065297;28;19977;-68
2022/10/18 10:35:22;;;;;;;;;;;16.10;87.30;;;;;;5067605;28;19908;-68
2022/10/18 10:37:51;;;;;;;;;;;16.10;88.10;;;;;;5069179;28;19927;-68
2022/10/18 10:40:19;;;;;;;;;;;16.10;87.80;;;;;;5063594;28;20344;-67
2022/10/18 10:43:10;;;;;;;;;;;16.40;88.70;;;;;;5066779;28;20394;-68
2022/10/18 10:45:38;;;;;;;;;;;16.60;88.50;;;;;;5066704;28;19900;-67
2022/10/18 10:48:12;;;;;;;;;;;16.60;87.90;;;;;;5067495;28;20300;-67
2022/10/18 10:50:52;;;;;;;;;;;16.80;86.60;;;;;;5068179;28;19908;-67
2022/10/18 10:53:26;;;;;;;;;;;16.60;84.70;;;;;;5058484;28;19904;-68
2022/10/18 10:55:53;;;;;;;;;;;16.70;84.70;;;;;;5062020;28;19909;-68
2022/10/18 10:58:18;;;;;;;;;;;16.60;83.10;;;;;;5062603;28;19909;-68
2022/10/18 11:00:43;;;;;;;;;;;16.80;82.90;;;;;;5065659;28;19912;-68
2022/10/18 11:03:29;;;;;;;;;;;16.70;81.90;;;;;;5054594;28;20007;-69
2022/10/18 11:05:56;;;;;;;;;;;16.80;82.10;;;;;;5065018;28;20022;-69
2022/10/18 11:08:23;;;;;;;;;;;16.80;80.90;;;;;;5067838;28;19965;-68
2022/10/18 11:10:54;;;;;;;;;;;17.00;80.30;;;;;;5048373;28;20067;-68
2022/10/18 11:13:27;;;;;;;;;;;17.10;80.70;;;;;;5067678;28;19904;-68
2022/10/18 11:15:56;;;;;;;;;;;17.20;81.30;;;;;;5058973;28;19951;-68
2022/10/18 11:18:25;;;;;;;;;;;17.30;80.10;;;;;;5066380;28;20268;-70
2022/10/18 11:21:11;;;;;;;;;;;17.30;79.20;;;;;;5064001;28;19976;-68
2022/10/18 11:23:38;;;;;;;;;;;17.40;78.90;;;;;;5058750;28;20003;-70
2022/10/18 11:26:12;;;;;;;;;;;17.00;78.20;;;;;;5054707;28;19905;-69
2022/10/18 11:28:37;;;;;;;;;;;16.50;79.80;;;;;;5061987;28;19931;-68
2022/10/18 11:31:09;;;;;;;;;;;16.30;80.90;;;;;;5065196;28;19956;-70
2022/10/18 11:33:40;;;;;;;;;;;16.60;80.10;;;;;;5061436;28;19926;-68
2022/10/18 11:36:08;;;;;;;;;;;17.00;79.20;;;;;;5073861;28;19904;-67
2022/10/18 11:38:52;;;;;;;;;;;17.70;79.10;;;;;;5075321;28;19990;-68
2022/10/18 11:41:41;;;;;;;;;;;17.90;75.60;;;;;;5072648;28;20383;-68
2022/10/18 11:44:11;;;;;;;;;;;17.20;75.50;;;;;;5064074;28;20058;-68
2022/10/18 11:46:43;;;;;;;;;;;16.60;77.70;;;;;;5079355;28;19901;-68
2022/10/18 11:49:20;;;;;;;;;;;16.40;78.10;;;;;;5065034;28;20356;-67
2022/10/18 11:51:54;;;;;;;;;;;16.50;79.00;;;;;;5073163;28;19912;-68
2022/10/18 11:54:23;;;;;;;;;;;16.90;77.80;;;;;;5054650;28;20061;-66
2022/10/18 11:57:09;;;;;;;;;;;17.20;76.90;;;;;;5065623;28;19985;-66
2022/10/18 11:59:44;;;;;;;;;;;17.40;76.20;;;;;;5064324;28;19966;-66
2022/10/18 12:02:23;;;;;;;;;;;17.00;76.00;;;;;;5069656;28;19911;-67
2022/10/18 12:04:51;;;;;;;;;;;16.90;76.40;;;;;;5066892;28;19973;-67
2022/10/18 12:07:18;;;;;;;;;;;16.90;77.20;;;;;;5062593;28;19911;-66
2022/10/18 12:09:44;;;;;;;;;;;16.50;77.80;;;;;;5066708;28;19912;-67
2022/10/18 12:12:15;;;;;;;;;;;17.10;76.50;;;;;;5071206;28;20001;-67
2022/10/18 12:14:53;;;;;;;;;;;17.60;73.80;;;;;;5066264;28;19905;-68
2022/10/18 12:17:21;;;;;;;;;;;17.60;74.90;;;;;;5070681;28;19912;-67
2022/10/18 12:19:48;;;;;;;;;;;16.70;76.80;;;;;;5078489;28;19916;-68
2022/10/18 12:22:13;;;;;;;;;;;16.20;78.70;;;;;;5067660;28;19957;-67
2022/10/18 12:24:39;;;;;;;;;;;15.90;77.70;;;;;;5066680;28;19912;-67
2022/10/18 12:27:05;;;;;;;;;;;16.50;74.80;;;;;;5071582;28;19915;-68
2022/10/18 12:29:30;;;;;;;;;;;16.90;72.30;;;;;;5073760;28;19904;-68
2022/10/18 12:31:57;;;;;;;;;;;17.30;72.40;;;;;;5063065;28;19915;-68
2022/10/18 12:34:32;;;;;;;;;;;17.30;73.10;;;;;;5076865;28;19904;-67
2022/10/18 12:37:03;;;;;;;;;;;17.20;72.70;;;;;;5071471;28;19908;-67
2022/10/18 12:39:31;;;;;;;;;;;17.60;71.60;;;;;;5058585;28;19919;-67
2022/10/18 12:41:57;;;;;;;;;;;17.80;71.20;;;;;;5063720;28;19917;-68
2022/10/18 12:44:34;;;;;;;;;;;18.10;69.80;;;;;;5082814;28;19912;-68
2022/10/18 12:47:01;;;;;;;;;;;18.20;69.80;;;;;;5070049;28;19952;-68
2022/10/18 12:49:32;;;;;;;;;;;18.50;69.50;;;;;;5059960;28;20252;-68
2022/10/18 12:51:58;;;;;;;;;;;18.70;66.70;;;;;;5070184;28;19915;-68
2022/10/18 12:54:26;;;;;;;;;;;18.50;66.00;;;;;;5069744;28;19904;-68
2022/10/18 12:56:51;;;;;;;;;;;18.70;66.60;;;;;;5067373;28;20060;-68
2022/10/18 12:59:17;;;;;;;;;;;18.40;66.50;;;;;;5074241;28;20429;-68
2022/10/18 13:01:51;;;;;;;;;;;18.10;67.10;;;;;;5067081;28;20012;-68
2022/10/18 13:04:26;;;;;;;;;;;18.00;65.80;;;;;;5077365;28;19916;-68
2022/10/18 13:07:10;;;;;;;;;;;17.70;65.80;;;;;;5078351;28;19995;-67
2022/10/18 13:10:01;;;;;;;;;;;17.80;66.00;;;;;;5070161;28;19905;-68
2022/10/18 13:12:27;;;;;;;;;;;18.40;65.30;;;;;;5064111;28;19920;-67
2022/10/18 13:14:52;;;;;;;;;;;18.60;64.60;;;;;;5056819;28;20249;-68
2022/10/18 13:17:17;;;;;;;;;;;18.70;62.80;;;;;;5074591;28;19909;-70
2022/10/18 13:20:07;;;;;;;;;;;18.70;62.50;;;;;;5082967;28;20003;-68
2022/10/18 13:22:39;;;;;;;;;;;18.40;62.50;;;;;;5069147;28;19952;-69
2022/10/18 13:25:10;;;;;;;;;;;18.50;62.40;;;;;;5070411;28;19912;-69
2022/10/18 13:27:38;;;;;;;;;;;18.60;63.20;;;;;;5072956;28;19905;-68
2022/10/18 13:30:19;;;;;;;;;;;18.70;63.00;;;;;;5068123;28;20340;-68
2022/10/18 13:33:08;;;;;;;;;;;18.60;64.30;;;;;;5068421;28;19969;-68
2022/10/18 13:35:53;;;;;;;;;;;18.10;62.90;;;;;;5068738;28;19916;-68
2022/10/18 13:38:28;;;;;;;;;;;18.50;62.00;;;;;;5080883;28;20311;-71
2022/10/18 13:41:08;;;;;;;;;;;18.50;61.70;;;;;;5076148;28;20006;-68
2022/10/18 13:43:46;;;;;;;;;;;19.00;60.90;;;;;;5059904;28;20336;-68
2022/10/18 13:46:11;;;;;;;;;;;18.30;62.70;;;;;;5065835;28;20347;-70
2022/10/18 13:48:37;;;;;;;;;;;18.30;62.10;;;;;;5052983;28;19980;-67
2022/10/18 13:51:14;;;;;;;;;;;18.70;62.90;;;;;;5064699;28;20253;-68
2022/10/18 13:53:45;;;;;;;;;;;18.80;63.00;;;;;;5057363;28;20011;-67
2022/10/18 13:56:14;;;;;;;;;;;19.10;62.60;;;;;;5055137;28;19907;-69
2022/10/18 13:58:48;;;;;;;;;;;19.40;62.50;;;;;;5060101;28;19949;-67
2022/10/18 14:01:19;;;;;;;;;;;19.40;61.60;;;;;;5065850;28;19926;-68
2022/10/18 14:04:06;;;;;;;;;;;19.40;62.60;;;;;;5067394;28;19912;-68
2022/10/18 14:06:41;;;;;;;;;;;19.70;62.00;;;;;;5053884;28;19908;-67
2022/10/18 14:09:27;;;;;;;;;;;19.50;61.80;;;;;;5073597;28;19901;-69
2022/10/18 14:11:55;;;;;;;;;;;19.00;63.00;;;;;;5077871;28;20379;-68
2022/10/18 14:14:28;;;;;;;;;;;18.00;66.20;;;;;;5071748;28;20221;-67
2022/10/18 14:16:57;;;;;;;;;;;17.30;68.60;;;;;;5062065;28;20217;-68
2022/10/18 14:19:29;;;;;;;;;;;16.80;71.20;;;;;;5069487;28;20328;-67
2022/10/18 14:22:03;;;;;;;;;;;16.30;73.10;;;;;;5055528;28;19904;-66
2022/10/18 14:24:29;;;;;;;;;;;16.00;75.10;;;;;;5066207;28;19957;-68